createdAt,value
2022-10-02T00:03:59.429Z,1.60
2022-10-02T00:09:02.514Z,1.60
2022-10-02T00:14:03.168Z,1.40
2022-10-02T00:18:58.414Z,1.73
2022-10-02T00:23:58.152Z,1.63
2022-10-02T00:29:07.859Z,1.57
2022-10-02T00:34:21.645Z,1.80
2022-10-02T00:39:35.176Z,1.90
2022-10-02T00:44:59.418Z,1.87
2022-10-02T00:50:23.787Z,1.73
2022-10-02T00:55:35.987Z,2.10
2022-10-02T01:00:31.704Z,1.80
2022-10-02T01:05:27.376Z,1.43
2022-10-02T01:10:22.347Z,1.87
2022-10-02T01:15:18.520Z,1.90
2022-10-02T01:20:19.758Z,2.00
2022-10-02T01:25:14.925Z,1.40
2022-10-02T01:30:12.685Z,1.80
2022-10-02T01:35:08.239Z,2.00
2022-10-02T01:40:09.774Z,1.53
2022-10-02T01:45:07.989Z,1.60
2022-10-02T01:50:17.647Z,1.80
2022-10-02T01:55:32.741Z,1.70
2022-10-02T02:00:36.895Z,1.57
2022-10-02T02:05:48.891Z,1.80
2022-10-02T02:10:53.882Z,1.60
2022-10-02T02:16:01.152Z,1.80
2022-10-02T02:21:02.057Z,1.37
2022-10-02T02:26:03.841Z,1.23
2022-10-02T02:31:03.104Z,1.50
2022-10-02T02:36:02.970Z,0.97
2022-10-02T02:41:02.563Z,1.33
2022-10-02T02:46:02.466Z,1.33
2022-10-02T02:51:05.265Z,1.57
2022-10-02T02:56:01.927Z,1.30
2022-10-02T03:00:55.708Z,1.30
2022-10-02T03:05:58.874Z,1.30
2022-10-02T03:11:11.587Z,1.50
2022-10-02T03:16:24.155Z,1.40
2022-10-02T03:21:28.965Z,1.70
2022-10-02T03:26:34.463Z,1.53
2022-10-02T03:31:33.900Z,1.70
2022-10-02T03:36:29.643Z,1.60
2022-10-02T03:41:22.929Z,1.70
2022-10-02T03:46:16.134Z,1.80
2022-10-02T03:51:11.975Z,1.67
2022-10-02T03:56:11.325Z,1.63
2022-10-02T04:01:17.963Z,2.17
2022-10-02T04:06:18.504Z,1.60
2022-10-02T04:11:19.704Z,1.50
2022-10-02T04:16:20.518Z,1.50
2022-10-02T04:21:27.595Z,1.70
2022-10-02T04:26:29.366Z,1.93
2022-10-02T04:31:22.713Z,1.80
2022-10-02T04:36:34.460Z,1.90
2022-10-02T04:42:15.271Z,1.93
2022-10-02T04:47:38.481Z,1.77
2022-10-02T04:53:12.202Z,1.93
2022-10-02T04:58:39.806Z,1.87
2022-10-02T05:03:54.552Z,1.43
2022-10-02T05:09:08.447Z,1.50
2022-10-02T05:14:59.563Z,1.30
2022-10-02T05:20:09.849Z,1.40
2022-10-02T05:25:34.848Z,1.20
2022-10-02T05:30:39.306Z,1.50
2022-10-02T05:35:58.760Z,1.57
2022-10-02T05:41:04.877Z,1.40
2022-10-02T05:46:07.374Z,2.03
2022-10-02T05:51:10.195Z,1.50
2022-10-02T05:56:11.400Z,1.50
2022-10-02T06:01:14.666Z,1.40
2022-10-02T06:06:17.742Z,1.20
2022-10-02T06:11:21.329Z,1.20
2022-10-02T06:16:27.650Z,1.60
2022-10-02T06:21:32.481Z,1.30
2022-10-02T06:26:39.566Z,1.20
2022-10-02T06:31:44.617Z,1.33
2022-10-02T06:37:04.471Z,1.27
2022-10-02T06:42:17.206Z,1.50
2022-10-02T06:47:35.425Z,1.40
2022-10-02T06:52:45.050Z,1.60
2022-10-02T06:58:03.546Z,1.50
2022-10-02T07:03:34.049Z,1.38
2022-10-02T07:08:45.280Z,1.08
2022-10-02T07:14:07.985Z,0.90
2022-10-02T07:19:38.121Z,1.20
2022-10-02T07:25:07.783Z,1.10
2022-10-02T07:30:07.256Z,1.10
2022-10-02T07:35:19.618Z,0.90
2022-10-02T07:40:32.280Z,0.80
2022-10-02T07:45:35.839Z,0.73
2022-10-02T07:50:42.033Z,0.70
2022-10-02T07:55:41.557Z,0.77
2022-10-02T08:00:44.555Z,0.90
2022-10-02T08:05:46.398Z,0.70
2022-10-02T08:10:45.717Z,0.75
2022-10-02T08:15:44.787Z,0.90
2022-10-02T08:20:44.406Z,0.68
2022-10-02T08:25:47.356Z,0.60
2022-10-02T08:30:40.557Z,0.40
2022-10-02T08:36:09.727Z,0.50
2022-10-02T08:42:01.945Z,0.43
2022-10-02T08:47:44.769Z,0.43
2022-10-02T08:53:42.451Z,0.50
2022-10-02T08:59:52.709Z,0.30
2022-10-02T09:05:43.696Z,0.38
2022-10-02T09:11:35.973Z,0.40
2022-10-02T09:16:49.318Z,0.40
2022-10-02T09:22:07.274Z,0.30
2022-10-02T09:27:50.745Z,0.40
2022-10-02T09:33:41.030Z,0.20
2022-10-02T09:39:25.077Z,0.32
2022-10-02T09:45:00.432Z,0.30
2022-10-02T09:50:42.352Z,0.35
2022-10-02T09:56:31.225Z,0.70
2022-10-02T10:02:21.346Z,0.40
2022-10-02T10:07:57.044Z,0.30
2022-10-02T10:13:34.069Z,0.40
2022-10-02T10:19:20.025Z,0.40
2022-10-02T10:25:04.261Z,0.30
2022-10-02T10:31:00.977Z,0.40
2022-10-02T10:36:59.030Z,0.30
2022-10-02T10:42:56.116Z,0.30
2022-10-02T10:48:36.961Z,0.32
2022-10-02T10:54:11.604Z,0.30
2022-10-02T10:59:42.392Z,0.45
2022-10-02T11:05:09.945Z,0.20
2022-10-02T11:10:45.185Z,0.20
2022-10-02T11:16:06.468Z,0.35
2022-10-02T11:21:35.658Z,0.30
2022-10-02T11:27:00.942Z,0.28
2022-10-02T11:32:27.979Z,0.20
2022-10-02T11:37:53.051Z,0.30
2022-10-02T11:43:25.701Z,0.20
2022-10-02T11:48:57.930Z,0.20
2022-10-02T11:54:25.085Z,0.20
2022-10-02T12:00:09.393Z,0.30
2022-10-02T12:05:25.569Z,0.30
2022-10-02T12:10:35.699Z,0.43
2022-10-02T12:15:44.507Z,0.38
2022-10-02T12:21:21.278Z,0.40
2022-10-02T12:26:53.259Z,0.70
2022-10-02T12:31:56.785Z,0.50
2022-10-02T12:37:01.819Z,0.35
2022-10-02T12:42:27.314Z,0.68
2022-10-02T12:48:15.312Z,0.50
2022-10-02T12:54:00.945Z,0.50
2022-10-02T12:59:09.663Z,0.50
2022-10-02T13:11:17.123Z,0.70
2022-10-02T13:16:23.257Z,0.70
2022-10-02T13:21:27.727Z,0.40
2022-10-02T13:26:38.278Z,0.60
2022-10-02T13:31:51.015Z,0.57
2022-10-02T13:37:10.133Z,0.40
2022-10-02T13:42:26.269Z,0.60
2022-10-02T13:47:45.113Z,0.50
2022-10-02T13:52:57.177Z,0.50
2022-10-02T13:58:21.021Z,0.47
2022-10-02T14:03:28.241Z,0.40
2022-10-02T14:08:45.641Z,0.50
2022-10-02T14:14:03.889Z,0.45
2022-10-02T14:19:25.434Z,0.40
2022-10-02T14:25:01.757Z,0.40
2022-10-02T14:30:05.414Z,0.50
2022-10-02T14:35:31.987Z,0.50
2022-10-02T14:40:34.136Z,0.32
2022-10-02T14:46:19.134Z,0.38
2022-10-02T14:51:30.929Z,0.70
2022-10-02T14:57:19.555Z,0.30
2022-10-02T15:03:03.370Z,0.45
2022-10-02T15:07:58.814Z,0.40
2022-10-02T15:13:02.440Z,0.45
2022-10-02T15:18:25.514Z,0.40
2022-10-02T15:23:41.515Z,0.40
2022-10-02T15:28:53.712Z,0.40
2022-10-02T15:34:11.640Z,0.50
2022-10-02T15:39:37.587Z,0.40
2022-10-02T15:45:07.787Z,0.40
2022-10-02T15:50:21.345Z,0.40
2022-10-02T15:55:29.930Z,0.40
2022-10-02T16:00:26.094Z,0.40
2022-10-02T16:05:44.716Z,0.32
2022-10-02T16:11:03.573Z,0.28
2022-10-02T16:16:16.921Z,0.40
2022-10-02T16:21:41.457Z,0.30
2022-10-02T16:27:00.183Z,0.47
2022-10-02T16:32:54.463Z,0.50
2022-10-02T16:38:00.429Z,0.50
2022-10-02T16:43:11.297Z,0.50
2022-10-02T16:48:14.093Z,0.90
2022-10-02T16:53:24.652Z,0.57
2022-10-02T16:58:29.736Z,0.65
2022-10-02T17:03:33.605Z,0.40
2022-10-02T17:08:39.457Z,0.50
2022-10-02T17:13:48.025Z,0.70
2022-10-02T17:18:49.689Z,0.52
2022-10-02T17:24:34.764Z,0.47
2022-10-02T17:29:43.309Z,0.60
2022-10-02T17:34:54.855Z,0.57
2022-10-02T17:40:17.721Z,0.75
2022-10-02T17:45:30.886Z,0.25
2022-10-02T17:51:38.687Z,0.50
2022-10-02T17:56:50.727Z,0.52
2022-10-02T18:02:18.011Z,0.57
2022-10-02T18:08:07.318Z,0.65
2022-10-02T18:19:37.857Z,0.52
2022-10-02T18:25:31.930Z,0.40
2022-10-02T18:30:44.138Z,0.40
2022-10-02T18:36:10.817Z,0.70
2022-10-02T18:41:26.396Z,0.50
2022-10-02T18:46:53.996Z,0.50
2022-10-02T18:52:39.704Z,0.43
2022-10-02T18:57:59.477Z,0.50
2022-10-02T19:03:23.887Z,0.47
2022-10-02T19:09:02.337Z,0.55
2022-10-02T19:13:56.262Z,0.45
2022-10-02T19:19:19.619Z,0.43
2022-10-02T19:24:21.499Z,0.68
2022-10-02T19:29:32.181Z,0.40
2022-10-02T19:34:32.366Z,0.22
2022-10-02T19:39:32.387Z,0.30
2022-10-02T19:44:32.233Z,0.22
2022-10-02T19:49:34.259Z,0.32
2022-10-02T19:54:36.691Z,0.30
2022-10-02T19:59:42.002Z,0.40
2022-10-02T20:04:37.139Z,0.47
2022-10-02T20:09:39.998Z,0.30
2022-10-02T20:14:42.421Z,0.28
2022-10-02T20:19:43.463Z,0.32
2022-10-02T20:24:50.633Z,0.30
2022-10-02T20:29:50.922Z,0.40
2022-10-02T20:34:53.405Z,0.35
2022-10-02T20:39:57.722Z,0.38
2022-10-02T20:44:54.841Z,1.00
2022-10-02T20:50:45.910Z,0.60
2022-10-02T20:55:51.465Z,0.40
2022-10-02T21:01:15.381Z,0.70
2022-10-02T21:06:52.703Z,0.57
2022-10-02T21:12:22.059Z,0.53
2022-10-02T21:17:58.280Z,0.57
2022-10-02T21:23:45.447Z,0.75
2022-10-02T21:29:23.409Z,0.30
2022-10-02T21:34:41.753Z,0.10
2022-10-02T21:40:27.401Z,0.20
2022-10-02T21:46:23.127Z,0.10
2022-10-02T21:52:02.077Z,0.10
2022-10-02T21:58:07.968Z,0.10
2022-10-02T22:03:58.585Z,0.10
2022-10-02T22:09:26.882Z,0.20
2022-10-02T22:14:31.135Z,0.28
2022-10-02T22:19:57.948Z,0.25
2022-10-02T22:25:11.165Z,0.20
2022-10-02T22:30:05.834Z,0.35
2022-10-02T22:35:17.534Z,0.28
2022-10-02T22:40:20.471Z,0.25
2022-10-02T22:45:24.003Z,0.30
2022-10-02T22:50:30.563Z,0.10
2022-10-02T22:55:29.942Z,0.30
2022-10-02T23:00:27.759Z,0.30
2022-10-02T23:05:34.472Z,0.20
2022-10-02T23:10:36.194Z,0.20
2022-10-02T23:15:47.707Z,0.32
2022-10-02T23:20:53.453Z,0.20
2022-10-02T23:25:59.904Z,0.22
2022-10-02T23:31:20.714Z,0.20
2022-10-02T23:36:26.067Z,0.30
2022-10-02T23:41:46.847Z,0.30
2022-10-02T23:47:03.045Z,0.25
2022-10-02T23:52:22.835Z,0.30
2022-10-02T23:57:50.040Z,1.10
